Main page
METAR-TAF:

METAR-TAF

Airports :

Alice Springs Airport

Alice Springs, Australia

latitude: 23-48S, longitude: 133-53E, elevation: 545 m

Current weather observation

The report was made 29 minutes ago, at 19:30 UTC
Wind 5 kt from the West/Northwest
Temperature 3°C
Humidity 60%
Pressure 1025 hPa
Visibility 10 km or more

METAR: YBAS 231930Z AUTO 29005KT 9999 // NCD 03/M04 Q1025 RF00.0/000.0

Time: 05:29 (19:59 UTC)

Forecast

The report was made 2 hours and 35 minutes ago, at 17:24 UTC
Forecast valid from 23 at 18 UTC to 24 at 18 UTC
Wind 5 kt from the West/Northwest
Visibility 10 km or more
no clouds below 1500 m and no cumulonimbus
From 24 at 0000 UTC
Wind 12 kt from the Southeast
Visibility 10 km or more
no clouds below 1500 m and no cumulonimbus
From 24 at 0800 UTC
Wind 5 kt from the South/Southeast
Visibility 10 km or more
no clouds below 1500 m and no cumulonimbus

TAF: YBAS 231724Z 2318/2418 30005KT CAVOK FM240000 13012KT CAVOK FM240800 15005KT CAVOK

Weather observations and forecasts of more than 4000 airports (METAR and TAF reports).

The available stations are represented by yellow and red dots on the map.

Hover mouse over dot to see the name of the station.

Then click to see weather observations and forecasts.

To change the map : click on the green buttons with a black cross to zoom in, on the green button with a dash to zoom out, or on the green arrows for adjacent maps.


METAR-TAF: